createdAt,value
2022-12-17T00:01:51.290Z,95.00
2022-12-17T00:04:37.764Z,95.00
2022-12-17T00:07:22.964Z,95.00
2022-12-17T00:10:08.296Z,95.00
2022-12-17T00:12:53.667Z,95.00
2022-12-17T00:15:42.107Z,95.00
2022-12-17T00:18:27.321Z,95.00
2022-12-17T00:21:13.377Z,95.00
2022-12-17T00:24:06.265Z,95.00
2022-12-17T00:26:51.431Z,95.00
2022-12-17T00:29:37.374Z,95.00
2022-12-17T00:32:22.677Z,95.00
2022-12-17T00:35:07.752Z,95.00
2022-12-17T00:37:53.098Z,95.10
2022-12-17T00:40:38.160Z,95.10
2022-12-17T00:43:28.131Z,95.00
2022-12-17T00:46:14.050Z,95.00
2022-12-17T00:48:59.723Z,95.00
2022-12-17T00:51:45.333Z,95.00
2022-12-17T00:54:30.963Z,95.00
2022-12-17T00:57:16.289Z,95.00
2022-12-17T01:00:01.387Z,95.10
2022-12-17T01:02:46.464Z,95.10
2022-12-17T01:05:31.942Z,95.10
2022-12-17T01:08:27.430Z,95.10
2022-12-17T01:11:17.090Z,95.00
2022-12-17T01:14:02.149Z,95.10
2022-12-17T01:16:47.683Z,95.10
2022-12-17T01:19:32.965Z,94.90
2022-12-17T01:22:18.057Z,95.00
2022-12-17T01:25:03.146Z,95.10
2022-12-17T01:27:48.569Z,95.00
2022-12-17T01:30:41.288Z,95.10
2022-12-17T01:33:26.952Z,95.00
2022-12-17T01:36:15.484Z,95.10
2022-12-17T01:39:00.733Z,95.10
2022-12-17T01:41:46.023Z,95.10
2022-12-17T01:44:49.899Z,95.10
2022-12-17T01:47:35.627Z,95.10
2022-12-17T01:50:20.791Z,95.10
2022-12-17T01:53:06.003Z,95.00
2022-12-17T01:55:51.306Z,95.10
2022-12-17T01:58:36.450Z,95.10
2022-12-17T02:01:21.744Z,95.10
2022-12-17T02:04:06.893Z,95.10
2022-12-17T02:06:52.597Z,95.30
2022-12-17T02:09:37.638Z,95.10
2022-12-17T02:12:37.229Z,95.00
2022-12-17T02:15:39.655Z,95.00
2022-12-17T02:18:26.680Z,95.10
2022-12-17T02:21:12.827Z,95.10
2022-12-17T02:24:17.079Z,95.10
2022-12-17T02:27:04.111Z,95.10
2022-12-17T02:29:58.033Z,95.10
2022-12-17T02:32:51.230Z,95.10
2022-12-17T02:35:38.417Z,95.10
2022-12-17T02:38:40.503Z,95.10
2022-12-17T02:41:26.462Z,95.00
2022-12-17T02:44:13.179Z,95.00
2022-12-17T02:46:59.245Z,95.10
2022-12-17T02:49:45.276Z,95.10
2022-12-17T02:52:34.934Z,95.10
2022-12-17T02:55:20.598Z,95.10
2022-12-17T02:58:05.816Z,95.10
2022-12-17T03:00:51.106Z,95.00
2022-12-17T03:03:36.899Z,95.00
2022-12-17T03:06:22.620Z,95.10
2022-12-17T03:09:07.956Z,95.10
2022-12-17T03:11:53.491Z,95.10
2022-12-17T03:14:38.831Z,95.10
2022-12-17T03:17:23.996Z,95.10
2022-12-17T03:20:09.063Z,95.20
2022-12-17T03:22:54.237Z,95.10
2022-12-17T03:25:39.417Z,95.10
2022-12-17T03:28:25.225Z,95.10
2022-12-17T03:31:10.431Z,95.10
2022-12-17T03:33:55.810Z,95.10
2022-12-17T03:36:40.971Z,95.10
2022-12-17T03:39:26.123Z,95.10
2022-12-17T03:45:09.637Z,95.10
2022-12-17T03:47:54.923Z,95.10
2022-12-17T03:50:40.234Z,95.10
2022-12-17T03:53:25.304Z,95.10
2022-12-17T03:56:15.025Z,95.10
2022-12-17T03:59:00.147Z,95.20
2022-12-17T04:01:45.708Z,95.10
2022-12-17T04:04:31.299Z,95.10
2022-12-17T04:07:16.744Z,95.10
2022-12-17T04:10:02.239Z,95.10
2022-12-17T04:12:47.824Z,95.10
2022-12-17T04:15:33.104Z,95.20
2022-12-17T04:18:18.565Z,95.10
2022-12-17T04:21:04.118Z,95.10
2022-12-17T04:23:49.648Z,95.10
2022-12-17T04:26:34.990Z,95.10
2022-12-17T04:29:20.308Z,95.10
2022-12-17T04:32:05.971Z,95.10
2022-12-17T04:34:51.264Z,95.10
2022-12-17T04:37:36.926Z,95.10
2022-12-17T04:40:22.677Z,95.00
2022-12-17T04:43:08.289Z,95.10
2022-12-17T04:46:07.401Z,95.10
2022-12-17T04:48:52.580Z,95.10
2022-12-17T04:51:38.010Z,95.10
2022-12-17T04:54:23.381Z,95.10
2022-12-17T04:57:08.624Z,95.00
2022-12-17T04:59:54.247Z,95.00
2022-12-17T05:02:42.800Z,95.00
2022-12-17T05:05:28.361Z,95.10
2022-12-17T05:08:14.491Z,95.00
2022-12-17T05:11:06.052Z,95.10
2022-12-17T05:13:51.408Z,95.10
2022-12-17T05:16:44.174Z,95.10
2022-12-17T05:19:29.609Z,95.10
2022-12-17T05:22:14.600Z,95.00
2022-12-17T05:25:00.043Z,95.10
2022-12-17T05:27:45.343Z,95.10
2022-12-17T05:30:31.018Z,95.10
2022-12-17T05:33:17.811Z,95.10
2022-12-17T05:36:02.865Z,95.10
2022-12-17T05:38:48.675Z,95.10
2022-12-17T05:41:34.168Z,95.10
2022-12-17T05:44:21.193Z,95.00
2022-12-17T05:47:06.740Z,95.00
2022-12-17T05:49:52.132Z,95.10
2022-12-17T05:52:37.483Z,95.10
2022-12-17T05:55:23.178Z,95.20
2022-12-17T05:58:08.507Z,95.10
2022-12-17T06:00:54.190Z,95.10
2022-12-17T06:03:39.971Z,95.10
2022-12-17T06:06:25.786Z,95.10
2022-12-17T06:09:11.149Z,95.00
2022-12-17T06:12:00.973Z,95.10
2022-12-17T06:14:55.342Z,95.10
2022-12-17T06:17:40.378Z,95.10
2022-12-17T06:20:26.180Z,95.10
2022-12-17T06:23:24.791Z,95.00
2022-12-17T06:26:30.826Z,95.00
2022-12-17T06:29:16.242Z,95.10
2022-12-17T06:32:01.666Z,95.00
2022-12-17T06:34:46.980Z,95.00
2022-12-17T06:37:32.211Z,95.00
2022-12-17T06:40:17.121Z,95.00
2022-12-17T06:43:10.492Z,95.00
2022-12-17T06:45:55.993Z,95.00
2022-12-17T06:48:41.281Z,95.00
2022-12-17T06:51:26.379Z,95.00
2022-12-17T06:54:11.982Z,95.00
2022-12-17T06:56:57.136Z,95.00
2022-12-17T06:59:42.653Z,95.00
2022-12-17T07:02:29.222Z,95.00
2022-12-17T07:05:14.884Z,95.10
2022-12-17T07:08:00.468Z,95.00
2022-12-17T07:10:45.687Z,95.00
2022-12-17T07:13:30.789Z,95.10
2022-12-17T07:16:16.071Z,95.00
2022-12-17T07:19:01.203Z,95.00
2022-12-17T07:21:46.275Z,95.00
2022-12-17T07:24:31.636Z,95.00
2022-12-17T07:27:16.909Z,95.00
2022-12-17T07:30:01.958Z,95.10
2022-12-17T07:32:47.094Z,95.00
2022-12-17T07:35:32.463Z,95.00
2022-12-17T07:38:18.705Z,95.00
2022-12-17T07:41:03.794Z,95.00
2022-12-17T07:43:52.994Z,95.00
2022-12-17T07:46:38.879Z,95.00
2022-12-17T07:49:25.888Z,95.00
2022-12-17T07:52:11.855Z,94.90
2022-12-17T07:54:57.121Z,94.90
2022-12-17T07:57:47.264Z,94.90
2022-12-17T08:00:33.038Z,94.90
2022-12-17T08:03:18.941Z,94.80
2022-12-17T08:06:04.618Z,94.80
2022-12-17T08:08:49.841Z,94.70
2022-12-17T08:11:35.137Z,94.70
2022-12-17T08:14:20.685Z,94.70
2022-12-17T08:17:06.066Z,94.70
2022-12-17T08:19:51.558Z,94.70
2022-12-17T08:22:36.763Z,94.70
2022-12-17T08:25:21.993Z,94.60
2022-12-17T08:28:11.161Z,94.60
2022-12-17T08:31:07.743Z,94.60
2022-12-17T08:33:53.192Z,94.60
2022-12-17T08:36:38.559Z,94.60
2022-12-17T08:39:23.852Z,94.60
2022-12-17T08:42:09.549Z,94.60
2022-12-17T08:44:54.886Z,94.60
2022-12-17T08:47:42.183Z,94.50
2022-12-17T08:50:27.696Z,94.60
2022-12-17T08:53:19.422Z,94.60
2022-12-17T08:56:04.526Z,94.50
2022-12-17T08:58:53.316Z,94.60
2022-12-17T09:01:42.799Z,94.60
2022-12-17T09:04:28.291Z,94.50
2022-12-17T09:07:13.639Z,94.50
2022-12-17T09:09:58.807Z,94.60
2022-12-17T09:12:44.208Z,94.60
2022-12-17T09:15:29.307Z,94.60
2022-12-17T09:18:28.261Z,94.60
2022-12-17T09:21:14.193Z,94.60
2022-12-17T09:23:59.672Z,94.60
2022-12-17T09:26:44.777Z,94.60
2022-12-17T09:29:29.956Z,94.60
2022-12-17T09:32:15.047Z,94.60
2022-12-17T09:35:00.373Z,94.60
2022-12-17T09:37:45.496Z,94.60
2022-12-17T09:40:35.630Z,94.70
2022-12-17T09:43:24.340Z,94.70
2022-12-17T09:46:15.064Z,94.70
2022-12-17T09:49:23.253Z,94.70
2022-12-17T09:52:08.555Z,94.70
2022-12-17T09:55:01.210Z,94.70
2022-12-17T09:57:49.217Z,94.70
2022-12-17T10:00:35.694Z,94.70
2022-12-17T10:03:29.398Z,94.70
2022-12-17T10:06:20.761Z,94.70
2022-12-17T10:09:09.751Z,94.70
2022-12-17T10:11:55.445Z,94.80
2022-12-17T10:14:42.069Z,94.70
2022-12-17T10:17:36.823Z,94.70
2022-12-17T10:20:22.932Z,94.70
2022-12-17T10:23:09.150Z,94.80
2022-12-17T10:25:54.883Z,94.70
2022-12-17T10:28:41.570Z,94.80
2022-12-17T10:31:34.123Z,94.80
2022-12-17T10:34:19.815Z,94.80
2022-12-17T10:37:07.504Z,95.00
2022-12-17T10:39:52.611Z,94.70
2022-12-17T10:42:39.568Z,94.80
2022-12-17T10:45:37.798Z,94.80
2022-12-17T10:48:23.479Z,94.80
2022-12-17T10:51:08.763Z,94.80
2022-12-17T10:53:54.164Z,94.80
2022-12-17T10:56:41.430Z,94.80
2022-12-17T10:59:31.142Z,94.80
2022-12-17T11:02:17.560Z,94.80
2022-12-17T11:05:10.410Z,94.80
2022-12-17T11:08:00.224Z,94.80
2022-12-17T11:10:47.821Z,94.80
2022-12-17T11:13:51.924Z,94.80
2022-12-17T11:16:40.728Z,94.80
2022-12-17T11:19:29.076Z,94.90
2022-12-17T11:22:23.427Z,94.90
2022-12-17T11:25:15.213Z,94.80
2022-12-17T11:28:02.442Z,94.90
2022-12-17T11:30:48.572Z,94.80
2022-12-17T11:33:49.175Z,94.80
2022-12-17T11:36:41.191Z,94.80
2022-12-17T11:39:33.347Z,94.80
2022-12-17T11:42:21.520Z,94.90
2022-12-17T11:45:06.573Z,94.90
2022-12-17T11:47:54.855Z,94.90
2022-12-17T11:50:46.444Z,94.80
2022-12-17T11:53:38.180Z,94.90
2022-12-17T11:56:41.892Z,94.80
2022-12-17T11:59:53.234Z,94.90
2022-12-17T12:02:50.441Z,94.90
2022-12-17T12:05:56.707Z,94.90
2022-12-17T12:08:42.307Z,94.90
2022-12-17T12:11:41.797Z,94.90
2022-12-17T12:14:26.959Z,94.90
2022-12-17T12:17:32.302Z,94.90
2022-12-17T12:20:22.089Z,94.90
2022-12-17T12:23:16.621Z,94.90
2022-12-17T12:26:22.209Z,95.00
2022-12-17T12:29:12.009Z,94.90
2022-12-17T12:32:19.941Z,94.90
2022-12-17T12:35:05.459Z,94.90
2022-12-17T12:37:51.599Z,94.90
2022-12-17T12:40:51.898Z,94.90
2022-12-17T12:43:40.913Z,94.90
2022-12-17T12:46:45.024Z,94.90
2022-12-17T12:49:37.449Z,94.90
2022-12-17T12:52:22.897Z,94.90
2022-12-17T12:55:14.144Z,95.00
2022-12-17T12:58:16.429Z,94.90
2022-12-17T13:01:01.792Z,94.90
2022-12-17T13:03:51.325Z,94.90
2022-12-17T13:06:36.865Z,94.90
2022-12-17T13:09:32.198Z,95.00
2022-12-17T13:12:00.800Z,95.00
2022-12-17T13:14:35.989Z,95.00
2022-12-17T13:17:07.261Z,95.00
2022-12-17T13:19:39.324Z,95.00
2022-12-17T13:22:11.931Z,94.90
2022-12-17T13:24:38.784Z,95.00
2022-12-17T13:27:05.536Z,95.00
2022-12-17T13:29:33.784Z,95.00
2022-12-17T13:32:00.573Z,95.00
2022-12-17T13:34:47.663Z,95.00
2022-12-17T13:37:17.166Z,95.00
2022-12-17T13:40:02.304Z,95.00
2022-12-17T13:42:30.618Z,95.00
2022-12-17T13:44:58.028Z,95.00
2022-12-17T13:47:29.130Z,95.00
2022-12-17T13:50:32.188Z,95.00
2022-12-17T13:52:43.743Z,95.00
2022-12-17T13:55:16.778Z,95.00
2022-12-17T13:57:47.002Z,95.00
2022-12-17T14:00:21.621Z,95.00
2022-12-17T14:02:49.150Z,95.00
2022-12-17T14:05:42.448Z,95.00
2022-12-17T14:08:12.703Z,95.00
2022-12-17T14:10:44.028Z,95.00
2022-12-17T14:13:13.968Z,95.00
2022-12-17T14:15:45.445Z,95.00
2022-12-17T14:18:15.580Z,95.00
2022-12-17T14:20:42.662Z,95.10
2022-12-17T14:23:15.239Z,95.10
2022-12-17T14:25:43.649Z,95.10
2022-12-17T14:28:22.329Z,95.00
2022-12-17T14:31:25.152Z,95.00
2022-12-17T14:33:37.231Z,95.10
2022-12-17T14:36:06.021Z,95.10
2022-12-17T14:38:41.336Z,95.10
2022-12-17T14:41:32.624Z,95.10
2022-12-17T14:44:00.234Z,95.10
2022-12-17T14:46:28.081Z,95.10
2022-12-17T14:49:01.507Z,95.10
2022-12-17T14:51:31.755Z,95.10
2022-12-17T14:54:05.485Z,95.10
2022-12-17T14:56:32.316Z,95.10
2022-12-17T14:58:59.054Z,95.10
2022-12-17T15:01:26.025Z,95.10
2022-12-17T15:03:52.965Z,95.10
2022-12-17T15:06:19.921Z,95.10
2022-12-17T15:08:48.298Z,95.20
2022-12-17T15:11:19.234Z,95.10
2022-12-17T15:13:48.228Z,95.10
2022-12-17T15:16:18.408Z,95.20
2022-12-17T15:18:45.170Z,95.10
2022-12-17T15:21:12.836Z,95.10
2022-12-17T15:23:41.409Z,95.10
2022-12-17T15:26:09.548Z,95.20
2022-12-17T15:28:36.766Z,95.20
2022-12-17T15:31:03.879Z,95.10
2022-12-17T15:33:30.662Z,95.10
2022-12-17T15:35:58.022Z,95.10
2022-12-17T15:38:24.795Z,95.10
2022-12-17T15:40:51.467Z,95.10
2022-12-17T15:43:18.237Z,95.10
2022-12-17T15:45:49.182Z,95.10
2022-12-17T15:48:17.718Z,95.20
2022-12-17T15:50:44.471Z,95.20
2022-12-17T15:53:11.303Z,95.10
2022-12-17T15:55:38.156Z,95.10
2022-12-17T15:58:05.440Z,95.10
2022-12-17T16:00:32.241Z,95.10
2022-12-17T16:02:59.279Z,95.10
2022-12-17T16:05:26.122Z,95.10
2022-12-17T16:07:52.936Z,95.20
2022-12-17T16:10:19.708Z,95.20
2022-12-17T16:12:46.416Z,95.20
2022-12-17T16:15:13.453Z,95.20
2022-12-17T16:17:40.205Z,95.20
2022-12-17T16:20:07.562Z,95.20
2022-12-17T16:22:34.403Z,95.20
2022-12-17T16:25:01.150Z,95.20
2022-12-17T16:27:27.889Z,95.20
2022-12-17T16:29:54.618Z,95.20
2022-12-17T16:32:21.375Z,95.20
2022-12-17T16:34:48.150Z,95.20
2022-12-17T16:37:15.018Z,95.20
2022-12-17T16:39:41.766Z,95.20
2022-12-17T16:42:08.753Z,95.20
2022-12-17T16:44:35.502Z,95.20
2022-12-17T16:47:02.293Z,95.20
2022-12-17T16:49:29.039Z,95.20
2022-12-17T16:51:57.775Z,95.20
2022-12-17T16:54:28.394Z,95.20
2022-12-17T16:56:55.269Z,95.30
2022-12-17T16:59:23.356Z,95.20
2022-12-17T17:01:50.916Z,95.20
2022-12-17T17:04:18.639Z,95.20
2022-12-17T17:06:52.621Z,95.20
2022-12-17T17:09:19.960Z,95.20
2022-12-17T17:11:51.399Z,95.20
2022-12-17T17:14:19.207Z,95.20
2022-12-17T17:16:46.056Z,95.30
2022-12-17T17:19:12.910Z,95.30
2022-12-17T17:21:40.667Z,95.30
2022-12-17T17:24:18.413Z,95.30
2022-12-17T17:26:47.563Z,95.20
2022-12-17T17:29:14.518Z,95.20
2022-12-17T17:34:28.162Z,95.30
2022-12-17T17:36:54.942Z,95.30
2022-12-17T17:39:21.775Z,95.30
2022-12-17T17:41:48.601Z,95.30
2022-12-17T17:44:16.579Z,95.30
2022-12-17T17:46:43.517Z,95.30
2022-12-17T17:49:10.727Z,95.30
2022-12-17T17:52:09.876Z,95.30
2022-12-17T17:54:27.848Z,95.30
2022-12-17T17:56:54.594Z,95.30
2022-12-17T17:59:24.204Z,95.30
2022-12-17T18:01:56.112Z,95.30
2022-12-17T18:04:24.361Z,95.30
2022-12-17T18:09:38.106Z,95.30
2022-12-17T18:12:25.077Z,95.30
2022-12-17T18:15:19.171Z,95.30
2022-12-17T18:17:39.407Z,95.30
2022-12-17T18:20:06.498Z,95.30
2022-12-17T18:22:33.231Z,95.30
2022-12-17T18:24:59.961Z,95.30
2022-12-17T18:27:26.958Z,95.30
2022-12-17T18:29:53.671Z,95.30
2022-12-17T18:32:20.414Z,95.40
2022-12-17T18:34:47.268Z,95.30
2022-12-17T18:37:14.009Z,95.20
2022-12-17T18:39:40.915Z,95.30
2022-12-17T18:42:27.975Z,95.20
2022-12-17T18:44:54.756Z,95.20
2022-12-17T18:47:21.566Z,95.30
2022-12-17T18:49:48.532Z,95.30
2022-12-17T18:52:17.197Z,95.30
2022-12-17T18:54:44.889Z,95.40
2022-12-17T18:57:11.849Z,95.30
2022-12-17T18:59:40.992Z,95.30
2022-12-17T19:02:14.162Z,95.30
2022-12-17T19:04:41.276Z,95.30
2022-12-17T19:07:08.048Z,95.30
2022-12-17T19:09:35.864Z,95.30
2022-12-17T19:12:04.080Z,95.40
2022-12-17T19:14:30.793Z,95.30
2022-12-17T19:16:58.110Z,95.30
2022-12-17T19:19:25.406Z,95.40
2022-12-17T19:21:54.917Z,95.30
2022-12-17T19:24:22.951Z,95.30
2022-12-17T19:26:50.480Z,95.30
2022-12-17T19:29:17.756Z,95.30
2022-12-17T19:31:44.779Z,95.30
2022-12-17T19:34:12.930Z,95.30
2022-12-17T19:36:40.118Z,95.30
2022-12-17T19:39:08.442Z,95.30
2022-12-17T19:41:35.209Z,95.30
2022-12-17T19:44:03.331Z,95.30
2022-12-17T19:46:30.979Z,95.40
2022-12-17T19:48:57.788Z,95.40
2022-12-17T19:51:25.415Z,95.40
2022-12-17T19:53:52.235Z,95.30
2022-12-17T19:56:26.353Z,95.40
2022-12-17T19:59:03.540Z,95.40
2022-12-17T20:01:35.201Z,95.30
2022-12-17T20:04:02.121Z,95.30
2022-12-17T20:06:30.037Z,95.30
2022-12-17T20:08:58.112Z,95.40
2022-12-17T20:11:34.156Z,95.60
2022-12-17T20:14:01.017Z,95.30
2022-12-17T20:16:28.540Z,95.40
2022-12-17T20:18:55.612Z,95.30
2022-12-17T20:21:22.389Z,95.30
2022-12-17T20:23:49.374Z,95.30
2022-12-17T20:26:16.836Z,95.30
2022-12-17T20:28:43.731Z,95.40
2022-12-17T20:31:11.167Z,95.40
2022-12-17T20:33:38.082Z,95.40
2022-12-17T20:36:05.800Z,95.40
2022-12-17T20:38:32.798Z,95.30
2022-12-17T20:40:59.746Z,95.30
2022-12-17T20:43:27.141Z,95.30
2022-12-17T20:45:57.113Z,95.30
2022-12-17T20:48:24.236Z,95.60
2022-12-17T20:50:51.160Z,95.30
2022-12-17T20:53:17.988Z,95.70
2022-12-17T20:55:44.866Z,95.40
2022-12-17T20:58:13.449Z,95.40
2022-12-17T21:00:40.572Z,95.40
2022-12-17T21:03:07.571Z,95.30
2022-12-17T21:05:35.296Z,95.30
2022-12-17T21:08:02.021Z,95.40
2022-12-17T21:10:28.809Z,95.30
2022-12-17T21:13:14.009Z,95.40
2022-12-17T21:15:40.760Z,95.40
2022-12-17T21:18:07.538Z,95.40
2022-12-17T21:20:34.351Z,95.40
2022-12-17T21:23:01.570Z,95.40
2022-12-17T21:25:28.345Z,95.40
2022-12-17T21:27:55.089Z,95.40
2022-12-17T21:30:21.900Z,95.40
2022-12-17T21:32:48.684Z,95.40
2022-12-17T21:35:15.984Z,95.70
2022-12-17T21:37:43.970Z,95.40
2022-12-17T21:40:11.621Z,95.40
2022-12-17T21:42:56.964Z,95.40
2022-12-17T21:45:24.490Z,95.40
2022-12-17T21:47:51.414Z,95.30
2022-12-17T21:50:18.229Z,95.30
2022-12-17T21:52:44.954Z,95.40
2022-12-17T21:55:11.682Z,95.40
2022-12-17T21:57:39.218Z,95.40
2022-12-17T22:00:06.359Z,95.40
2022-12-17T22:02:33.179Z,95.40
2022-12-17T22:05:00.837Z,95.40
2022-12-17T22:07:27.741Z,95.40
2022-12-17T22:10:18.858Z,95.40
2022-12-17T22:13:01.785Z,95.40
2022-12-17T22:15:30.406Z,95.40
2022-12-17T22:18:02.962Z,95.40
2022-12-17T22:20:29.665Z,95.40
2022-12-17T22:22:56.413Z,95.40
2022-12-17T22:25:23.448Z,95.40
2022-12-17T22:27:50.338Z,95.40
2022-12-17T22:30:36.364Z,95.40
2022-12-17T22:33:10.747Z,95.40
2022-12-17T22:38:30.388Z,95.40
2022-12-17T22:42:03.900Z,95.40
2022-12-17T22:44:33.578Z,95.40
2022-12-17T22:44:48.464Z,95.40
2022-12-17T22:47:15.953Z,95.40
2022-12-17T22:49:44.491Z,95.40
2022-12-17T22:52:11.515Z,95.40
2022-12-17T22:54:38.496Z,95.40
2022-12-17T22:57:36.057Z,95.40
2022-12-17T22:59:52.302Z,95.40
2022-12-17T23:02:19.109Z,95.40
2022-12-17T23:04:46.410Z,95.40
2022-12-17T23:07:13.184Z,95.40
2022-12-17T23:09:39.884Z,95.70
2022-12-17T23:12:25.627Z,95.40
2022-12-17T23:14:52.369Z,95.40
2022-12-17T23:17:19.127Z,95.40
2022-12-17T23:19:46.026Z,95.40
2022-12-17T23:22:15.234Z,95.40
2022-12-17T23:24:45.595Z,95.40
2022-12-17T23:27:12.294Z,95.40
2022-12-17T23:29:39.010Z,95.40
2022-12-17T23:32:06.006Z,95.40
2022-12-17T23:34:32.769Z,95.40
2022-12-17T23:36:59.563Z,95.40
2022-12-17T23:39:26.461Z,95.50
2022-12-17T23:41:56.057Z,95.40
2022-12-17T23:44:22.846Z,95.40
2022-12-17T23:49:44.270Z,95.40
2022-12-17T23:52:11.082Z,95.40
2022-12-17T23:54:38.031Z,95.40
2022-12-17T23:57:05.084Z,95.50
2022-12-17T23:59:32.006Z,95.40
